CheckWX is a tool to help pilots better visualize weather data.  It is not intended as a substitute for an official pre-flight weather briefing.

19:51:34 UTC

KOCF METAR
Ocala International Airport - Jim Taylor Field
Ocala, Florida, USA
Current

1 hour ago

KOCF 121851Z 30008KT 10SM SCT035 34/21 A2988 RMK AO2 SLP118 T03390206 $
Observed
Jul-12 @ 18:51 UTC
Wind
  • 300° at 8 KTS
Visibility
10 SM
Flight Rules
VFR
Cloud Levels
  • Scattered at 3,500' AGL
Temperature
34°C / 93°F
Dewpoint
21°C / 70°F
Humidity
47%
Altimeter
29.88" Hg
Pressure
1011.82 hPa
Previous

2 hours ago

KOCF 121751Z VRB05KT 10SM FEW060 34/21 A2989 RMK AO2 SLP120 T03390211 10339 20244 56006 $
Observed
Jul-12 @ 17:51 UTC
Wind
  • Variable at 5 KTS
Visibility
10 SM
Flight Rules
VFR
Cloud Levels
  • Few at 6,000' AGL
Temperature
34°C / 93°F
Dewpoint
21°C / 70°F
Humidity
47%
Altimeter
29.89" Hg
Pressure
1012.22 hPa
Previous

3 hours ago

KOCF 121651Z 25007KT 10SM FEW050 34/21 A2989 RMK AO2 SLP122 T03390211 $
Observed
Jul-12 @ 16:51 UTC
Wind
  • 250° at 7 KTS
Visibility
10 SM
Flight Rules
VFR
Cloud Levels
  • Few at 5,000' AGL
Temperature
34°C / 93°F
Dewpoint
21°C / 70°F
Humidity
47%
Altimeter
29.89" Hg
Pressure
1012.22 hPa